Time;durP1;ratioP1;P1;durP2;ratioP2;P2;SDS_P1;SDS_P2;PMS_P1;PMS_P2;Temp;Humidity;BMP_temperature;BMP_pressure;BME280_temperature;BME280_humidity;BME280_pressure;Samples;Min_cycle;Max_cycle;Signal;HPM_P1;HPM_P2
2021/04/08 00:01:43;;;;;;;380.23;212.05;;;;;;;;;;4974746;28;20049;-79
2021/04/08 00:04:09;;;;;;;373.98;207.10;;;;;;;;;;4975830;28;20030;-79
2021/04/08 00:06:35;;;;;;;389.67;225.75;;;;;;;;;;4973216;28;20121;-79
2021/04/08 00:09:01;;;;;;;377.80;214.48;;;;;;;;;;4975407;28;20027;-79
2021/04/08 00:11:27;;;;;;;382.23;216.98;;;;;;;;;;4990797;28;20033;-79
2021/04/08 00:13:53;;;;;;;379.58;211.23;;;;;;;;;;4969960;28;20097;-79
2021/04/08 00:16:19;;;;;;;385.92;211.43;;;;;;;;;;4970425;28;20125;-79
2021/04/08 00:18:45;;;;;;;380.58;211.82;;;;;;;;;;4970375;28;20077;-80
2021/04/08 00:21:11;;;;;;;387.58;226.88;;;;;;;;;;4974647;28;20364;-80
2021/04/08 00:23:37;;;;;;;390.25;212.40;;;;;;;;;;4975166;28;20038;-80
2021/04/08 00:26:03;;;;;;;381.00;221.30;;;;;;;;;;4977886;28;20122;-80
2021/04/08 00:28:29;;;;;;;376.48;206.60;;;;;;;;;;4988713;28;20105;-79
2021/04/08 00:30:56;;;;;;;375.52;211.18;;;;;;;;;;4992694;28;20023;-79
2021/04/08 00:33:23;;;;;;;381.92;222.77;;;;;;;;;;4974260;28;20142;-80
2021/04/08 00:35:48;;;;;;;382.05;214.80;;;;;;;;;;4974784;28;20121;-79
2021/04/08 00:38:14;;;;;;;382.65;217.85;;;;;;;;;;4975039;28;20034;-79
2021/04/08 00:40:41;;;;;;;383.95;213.73;;;;;;;;;;4992060;28;20044;-79
2021/04/08 00:43:07;;;;;;;384.95;221.23;;;;;;;;;;4990829;28;20371;-80
2021/04/08 00:45:34;;;;;;;383.75;206.02;;;;;;;;;;4974424;28;20034;-80
2021/04/08 00:48:00;;;;;;;376.00;209.65;;;;;;;;;;4969636;28;20034;-79
2021/04/08 00:50:26;;;;;;;389.42;214.63;;;;;;;;;;4975840;28;20117;-80
2021/04/08 00:52:56;;;;;;;375.58;213.63;;;;;;;;;;4996610;28;20105;-80
2021/04/08 00:55:23;;;;;;;378.38;209.13;;;;;;;;;;4982287;28;20029;-79
2021/04/08 00:57:49;;;;;;;387.45;215.95;;;;;;;;;;4978747;28;20030;-79
2021/04/08 01:00:15;;;;;;;385.50;217.63;;;;;;;;;;4975080;28;20026;-80
2021/04/08 01:02:41;;;;;;;380.95;205.63;;;;;;;;;;4982761;28;20105;-80
2021/04/08 01:05:08;;;;;;;375.55;207.93;;;;;;;;;;4995714;28;20054;-80
2021/04/08 01:07:36;;;;;;;380.40;219.00;;;;;;;;;;4966986;28;20038;-80
2021/04/08 01:10:03;;;;;;;376.02;210.43;;;;;;;;;;4995939;28;20026;-80
2021/04/08 01:12:28;;;;;;;379.85;213.18;;;;;;;;;;4977851;28;20033;-80
2021/04/08 01:14:55;;;;;;;380.23;212.82;;;;;;;;;;4995017;28;20689;-80
2021/04/08 01:17:23;;;;;;;383.17;218.93;;;;;;;;;;4986912;28;20489;-80
2021/04/08 01:20:14;;;;;;;389.38;224.32;;;;;;;;;;4977960;28;20478;-80
2021/04/08 01:22:59;;;;;;;382.88;210.80;;;;;;;;;;4994779;28;20034;-80
2021/04/08 01:25:28;;;;;;;384.33;213.85;;;;;;;;;;4973017;28;20030;-79
2021/04/08 01:28:13;;;;;;;385.00;213.40;;;;;;;;;;4961997;28;20121;-80
2021/04/08 01:30:42;;;;;;;383.70;216.75;;;;;;;;;;4976983;28;20027;-79
2021/04/08 01:33:16;;;;;;;388.60;217.65;;;;;;;;;;4977911;28;20093;-79
2021/04/08 01:35:42;;;;;;;389.45;215.73;;;;;;;;;;4975619;28;20034;-79
2021/04/08 01:38:11;;;;;;;381.23;223.82;;;;;;;;;;4985893;28;20033;-79
2021/04/08 01:40:38;;;;;;;391.30;222.32;;;;;;;;;;4995482;28;20036;-79
2021/04/08 01:43:04;;;;;;;387.80;218.60;;;;;;;;;;4993339;28;20034;-79
2021/04/08 01:45:31;;;;;;;376.40;217.23;;;;;;;;;;4993809;28;20034;-79
2021/04/08 01:47:58;;;;;;;384.58;223.13;;;;;;;;;;4976744;28;20058;-79
2021/04/08 01:50:25;;;;;;;388.20;215.75;;;;;;;;;;4976184;28;20033;-79
2021/04/08 01:52:52;;;;;;;382.88;224.05;;;;;;;;;;4974849;28;20027;-79
2021/04/08 01:55:19;;;;;;;379.70;215.10;;;;;;;;;;4975271;28;20399;-79
2021/04/08 01:57:46;;;;;;;380.65;224.18;;;;;;;;;;4994803;28;20030;-79
2021/04/08 02:00:13;;;;;;;384.20;222.52;;;;;;;;;;4992407;28;20043;-79
2021/04/08 02:02:43;;;;;;;372.10;209.15;;;;;;;;;;4995470;28;20474;-79
2021/04/08 02:05:14;;;;;;;375.88;212.05;;;;;;;;;;4976884;28;20045;-79
2021/04/08 02:07:41;;;;;;;379.42;214.30;;;;;;;;;;4991708;28;20106;-80
2021/04/08 02:10:10;;;;;;;377.70;211.75;;;;;;;;;;4991581;28;20027;-80
2021/04/08 02:12:37;;;;;;;375.23;211.43;;;;;;;;;;4983807;28;20026;-78
2021/04/08 02:15:04;;;;;;;376.50;215.02;;;;;;;;;;4990069;28;20030;-79
2021/04/08 02:17:31;;;;;;;373.98;204.75;;;;;;;;;;4988320;28;20026;-79
2021/04/08 02:19:57;;;;;;;379.38;215.98;;;;;;;;;;4977460;28;20026;-80
2021/04/08 02:22:24;;;;;;;378.92;216.07;;;;;;;;;;4977863;28;20093;-79
2021/04/08 02:24:51;;;;;;;388.67;217.55;;;;;;;;;;4972313;28;20505;-79
2021/04/08 02:27:17;;;;;;;376.02;217.60;;;;;;;;;;4970242;28;20062;-80
2021/04/08 02:29:43;;;;;;;386.48;214.35;;;;;;;;;;4980676;28;20031;-79
2021/04/08 02:32:10;;;;;;;377.73;212.00;;;;;;;;;;4958714;28;20034;-79
2021/04/08 02:34:36;;;;;;;379.45;217.93;;;;;;;;;;4960345;28;20043;-79
2021/04/08 02:37:03;;;;;;;376.65;219.60;;;;;;;;;;4965477;28;20034;-80
2021/04/08 02:39:29;;;;;;;379.38;204.00;;;;;;;;;;4974233;28;20034;-79
2021/04/08 02:41:55;;;;;;;379.73;216.93;;;;;;;;;;4975211;28;20038;-79
2021/04/08 02:44:22;;;;;;;376.38;217.70;;;;;;;;;;4965993;28;20116;-80
2021/04/08 02:46:48;;;;;;;384.98;222.23;;;;;;;;;;4977749;28;20026;-79
2021/04/08 02:49:14;;;;;;;375.30;212.27;;;;;;;;;;4976808;28;20065;-79
2021/04/08 02:51:49;;;;;;;372.67;205.60;;;;;;;;;;4973205;28;20034;-80
2021/04/08 02:54:34;;;;;;;382.85;218.57;;;;;;;;;;4967872;28;20035;-79
2021/04/08 02:57:01;;;;;;;376.83;208.75;;;;;;;;;;4984226;28;21771;-79
2021/04/08 02:59:29;;;;;;;381.08;223.93;;;;;;;;;;4971811;28;20038;-79
2021/04/08 03:02:02;;;;;;;381.13;225.90;;;;;;;;;;4974299;28;20033;-80
2021/04/08 03:04:29;;;;;;;376.65;209.43;;;;;;;;;;4968088;28;20069;-80
2021/04/08 03:06:55;;;;;;;383.88;225.43;;;;;;;;;;4985639;28;20037;-79
2021/04/08 03:09:27;;;;;;;376.50;217.10;;;;;;;;;;4968867;28;20034;-79
2021/04/08 03:11:53;;;;;;;391.98;225.90;;;;;;;;;;4986544;28;20083;-80
2021/04/08 03:14:20;;;;;;;383.42;226.93;;;;;;;;;;4968383;28;20082;-79
2021/04/08 03:16:48;;;;;;;378.08;217.10;;;;;;;;;;4967943;28;20045;-79
2021/04/08 03:19:16;;;;;;;381.73;218.43;;;;;;;;;;4972162;28;20059;-79
2021/04/08 03:21:43;;;;;;;388.98;227.20;;;;;;;;;;4972307;28;20595;-78
2021/04/08 03:24:10;;;;;;;383.83;225.82;;;;;;;;;;4967538;28;20031;-77
2021/04/08 03:26:36;;;;;;;392.05;227.88;;;;;;;;;;4987581;28;20379;-78
2021/04/08 03:29:14;;;;;;;386.30;230.55;;;;;;;;;;4969660;28;20026;-79
2021/04/08 03:31:44;;;;;;;386.27;222.63;;;;;;;;;;4970020;28;20030;-78
2021/04/08 03:34:11;;;;;;;381.73;216.65;;;;;;;;;;4968734;28;20856;-79
2021/04/08 03:36:37;;;;;;;382.95;214.95;;;;;;;;;;4967074;28;20042;-79
2021/04/08 03:39:05;;;;;;;387.92;221.85;;;;;;;;;;4970054;28;20040;-78
2021/04/08 03:41:35;;;;;;;380.33;219.90;;;;;;;;;;4959974;28;20608;-78
2021/04/08 03:44:01;;;;;;;385.10;227.57;;;;;;;;;;4967370;28;20038;-78
2021/04/08 03:46:27;;;;;;;382.00;230.13;;;;;;;;;;4969687;28;20034;-79
2021/04/08 03:48:54;;;;;;;380.63;220.65;;;;;;;;;;4969033;28;20046;-78
2021/04/08 03:51:25;;;;;;;382.90;219.00;;;;;;;;;;4964486;28;20032;-79
2021/04/08 03:53:51;;;;;;;382.42;221.35;;;;;;;;;;4961771;28;20058;-79
2021/04/08 03:56:18;;;;;;;375.67;217.27;;;;;;;;;;4981497;28;20066;-79
2021/04/08 03:58:45;;;;;;;388.23;222.70;;;;;;;;;;4969437;28;20480;-79
2021/04/08 04:01:11;;;;;;;385.98;223.93;;;;;;;;;;4968865;28;20027;-79
2021/04/08 04:03:37;;;;;;;384.55;220.27;;;;;;;;;;4970093;28;20060;-79
2021/04/08 04:06:04;;;;;;;389.20;226.88;;;;;;;;;;4985299;28;20424;-79
2021/04/08 04:08:30;;;;;;;383.25;229.35;;;;;;;;;;4967986;28;20031;-79
2021/04/08 04:10:55;;;;;;;380.15;218.30;;;;;;;;;;4980989;28;20034;-77
2021/04/08 04:13:22;;;;;;;375.55;212.18;;;;;;;;;;4988230;28;20105;-79
2021/04/08 04:15:49;;;;;;;384.73;230.48;;;;;;;;;;4966355;28;20037;-80
2021/04/08 04:18:17;;;;;;;379.08;214.02;;;;;;;;;;4974891;28;20037;-79
2021/04/08 04:20:44;;;;;;;385.95;226.23;;;;;;;;;;4971908;28;20037;-79
2021/04/08 04:23:12;;;;;;;383.05;222.60;;;;;;;;;;4984762;28;20113;-79
2021/04/08 04:25:38;;;;;;;378.80;220.65;;;;;;;;;;4968292;28;20547;-78
2021/04/08 04:28:04;;;;;;;378.88;214.15;;;;;;;;;;4965473;28;20154;-79
2021/04/08 04:30:30;;;;;;;386.58;219.13;;;;;;;;;;4983620;28;20046;-78
2021/04/08 04:32:56;;;;;;;387.88;226.35;;;;;;;;;;4964717;28;20027;-78
2021/04/08 04:35:22;;;;;;;380.30;223.50;;;;;;;;;;4966573;28;20491;-79
2021/04/08 04:37:48;;;;;;;382.23;224.75;;;;;;;;;;4970368;28;20038;-79
2021/04/08 04:40:19;;;;;;;381.38;221.15;;;;;;;;;;4984083;28;20063;-80
2021/04/08 04:42:46;;;;;;;377.02;221.98;;;;;;;;;;4970784;28;20034;-77
2021/04/08 04:45:14;;;;;;;385.08;223.07;;;;;;;;;;4965295;28;20039;-80
2021/04/08 04:47:41;;;;;;;382.25;220.25;;;;;;;;;;4969294;28;20478;-79
2021/04/08 04:50:08;;;;;;;382.88;225.00;;;;;;;;;;4970417;28;20023;-79
2021/04/08 04:52:34;;;;;;;388.60;224.02;;;;;;;;;;4973243;28;20049;-79
2021/04/08 04:55:00;;;;;;;377.83;216.73;;;;;;;;;;4966724;28;20113;-79
2021/04/08 04:57:26;;;;;;;373.23;215.45;;;;;;;;;;4989772;28;20034;-80
2021/04/08 04:59:52;;;;;;;383.00;222.68;;;;;;;;;;4983329;28;20026;-78
2021/04/08 05:02:50;;;;;;;384.98;229.13;;;;;;;;;;4970241;28;20391;-80
2021/04/08 05:05:16;;;;;;;382.95;221.55;;;;;;;;;;4966684;28;20026;-79
2021/04/08 05:07:42;;;;;;;379.27;218.27;;;;;;;;;;4986658;28;20034;-79
2021/04/08 05:10:09;;;;;;;381.92;225.48;;;;;;;;;;4968237;28;20051;-79
2021/04/08 05:12:35;;;;;;;383.10;222.57;;;;;;;;;;4966570;28;20027;-79
2021/04/08 05:15:01;;;;;;;389.80;234.95;;;;;;;;;;4968319;28;20113;-80
2021/04/08 05:17:27;;;;;;;382.35;225.32;;;;;;;;;;4966781;28;20121;-80
2021/04/08 05:19:54;;;;;;;392.40;220.68;;;;;;;;;;4972610;28;20034;-80
2021/04/08 05:22:20;;;;;;;385.48;220.70;;;;;;;;;;4967426;28;20351;-81
2021/04/08 05:24:46;;;;;;;384.95;221.60;;;;;;;;;;4970120;28;20048;-78
2021/04/08 05:27:12;;;;;;;379.65;221.32;;;;;;;;;;4986621;28;20041;-79
2021/04/08 05:29:37;;;;;;;384.30;219.00;;;;;;;;;;4985559;28;20027;-79
2021/04/08 05:32:04;;;;;;;387.48;221.98;;;;;;;;;;4963468;28;20027;-79
2021/04/08 05:34:29;;;;;;;378.85;222.93;;;;;;;;;;4985819;28;20399;-80
2021/04/08 05:36:55;;;;;;;379.20;221.50;;;;;;;;;;4993338;28;20035;-80
2021/04/08 05:39:21;;;;;;;376.42;211.70;;;;;;;;;;4975060;28;20027;-78
2021/04/08 05:41:54;;;;;;;386.73;223.43;;;;;;;;;;4994116;28;20073;-79
2021/04/08 05:44:20;;;;;;;378.73;213.88;;;;;;;;;;4985340;28;20038;-78
2021/04/08 05:46:45;;;;;;;380.02;219.25;;;;;;;;;;4984054;28;20109;-79
2021/04/08 05:49:11;;;;;;;383.92;224.77;;;;;;;;;;4976316;28;20559;-80
2021/04/08 05:51:37;;;;;;;383.00;222.02;;;;;;;;;;4979368;28;20434;-79
2021/04/08 05:54:03;;;;;;;382.23;229.23;;;;;;;;;;4976323;28;20102;-80
2021/04/08 05:56:29;;;;;;;378.50;208.00;;;;;;;;;;4957738;28;20041;-80
2021/04/08 05:58:55;;;;;;;394.33;232.13;;;;;;;;;;4991949;28;20044;-80
2021/04/08 06:01:21;;;;;;;380.30;219.18;;;;;;;;;;4974794;28;20026;-79
2021/04/08 06:03:48;;;;;;;381.65;220.65;;;;;;;;;;4977209;28;20042;-80
2021/04/08 06:06:14;;;;;;;380.05;217.50;;;;;;;;;;4995191;28;20027;-80
2021/04/08 06:08:40;;;;;;;384.90;227.90;;;;;;;;;;4994869;28;20751;-80
2021/04/08 06:11:06;;;;;;;383.13;219.65;;;;;;;;;;4991823;28;20471;-80
2021/04/08 06:13:32;;;;;;;386.08;218.52;;;;;;;;;;4975122;28;20031;-79
2021/04/08 06:15:58;;;;;;;388.00;224.27;;;;;;;;;;4960939;28;20049;-80
2021/04/08 06:18:24;;;;;;;394.30;228.48;;;;;;;;;;4972830;28;20034;-78
2021/04/08 06:20:50;;;;;;;390.10;222.88;;;;;;;;;;4972536;28;20077;-79
2021/04/08 06:23:16;;;;;;;382.33;219.48;;;;;;;;;;4972203;28;20097;-79
2021/04/08 06:25:42;;;;;;;383.23;220.75;;;;;;;;;;4973352;28;20518;-81
2021/04/08 06:28:08;;;;;;;380.13;215.27;;;;;;;;;;4976189;28;20027;-79
2021/04/08 06:30:34;;;;;;;385.05;231.23;;;;;;;;;;4972660;28;20042;-79
2021/04/08 06:33:00;;;;;;;385.00;230.77;;;;;;;;;;4975672;28;20639;-80
2021/04/08 06:35:26;;;;;;;383.50;217.18;;;;;;;;;;4975661;28;20026;-79
2021/04/08 06:37:52;;;;;;;386.92;228.38;;;;;;;;;;4992958;28;20105;-79
2021/04/08 06:40:19;;;;;;;384.70;220.98;;;;;;;;;;4993812;28;20101;-78
2021/04/08 06:42:46;;;;;;;391.23;224.20;;;;;;;;;;4975610;28;20414;-78
2021/04/08 06:45:12;;;;;;;390.90;233.88;;;;;;;;;;4978339;28;20621;-79
2021/04/08 06:47:47;;;;;;;379.02;215.40;;;;;;;;;;4975543;28;20089;-79
2021/04/08 06:50:13;;;;;;;391.52;231.55;;;;;;;;;;4968445;28;20467;-80
2021/04/08 06:52:40;;;;;;;386.08;225.07;;;;;;;;;;4974590;28;20730;-80
2021/04/08 06:55:06;;;;;;;382.33;225.27;;;;;;;;;;4975635;28;20022;-78
2021/04/08 06:57:32;;;;;;;386.42;227.63;;;;;;;;;;4975356;28;20056;-80
2021/04/08 06:59:59;;;;;;;382.90;225.75;;;;;;;;;;4963600;28;20435;-79
2021/04/08 07:02:25;;;;;;;385.42;228.20;;;;;;;;;;4975417;28;20081;-78
2021/04/08 07:04:52;;;;;;;386.80;226.25;;;;;;;;;;4960413;28;20085;-80
2021/04/08 07:07:18;;;;;;;382.83;230.77;;;;;;;;;;4971595;28;20039;-79
2021/04/08 07:09:44;;;;;;;387.95;232.07;;;;;;;;;;4987594;28;20733;-80
2021/04/08 07:12:11;;;;;;;384.48;225.10;;;;;;;;;;4966066;28;21681;-79
2021/04/08 07:14:38;;;;;;;382.13;233.05;;;;;;;;;;4974579;28;20054;-79
2021/04/08 07:17:08;;;;;;;384.33;226.43;;;;;;;;;;4975575;28;20065;-79
2021/04/08 07:19:34;;;;;;;384.17;224.93;;;;;;;;;;4971324;28;20039;-81
2021/04/08 07:22:00;;;;;;;384.52;232.50;;;;;;;;;;4989809;28;20101;-79
2021/04/08 07:24:27;;;;;;;384.05;233.52;;;;;;;;;;4975608;28;20085;-80
2021/04/08 07:26:53;;;;;;;386.35;228.63;;;;;;;;;;4970369;28;20034;-77
2021/04/08 07:29:20;;;;;;;391.83;235.75;;;;;;;;;;4985969;28;20044;-78
2021/04/08 07:31:46;;;;;;;387.63;226.43;;;;;;;;;;4972127;28;20023;-77
2021/04/08 07:34:12;;;;;;;389.45;239.00;;;;;;;;;;4988913;28;20598;-78
2021/04/08 07:36:39;;;;;;;387.15;232.88;;;;;;;;;;4975883;28;20112;-79
2021/04/08 07:39:06;;;;;;;395.98;236.35;;;;;;;;;;4975479;28;20549;-79
2021/04/08 07:41:35;;;;;;;384.50;223.32;;;;;;;;;;4974613;28;20071;-79
2021/04/08 07:44:08;;;;;;;393.08;236.07;;;;;;;;;;4991617;28;20053;-78
2021/04/08 07:46:35;;;;;;;388.27;236.35;;;;;;;;;;4976085;28;20050;-80
2021/04/08 07:49:01;;;;;;;394.98;247.73;;;;;;;;;;4974884;28;20027;-77
2021/04/08 07:51:28;;;;;;;392.83;237.90;;;;;;;;;;4965377;28;20029;-78
2021/04/08 07:54:13;;;;;;;391.95;238.27;;;;;;;;;;4975564;28;20082;-79
2021/04/08 07:56:40;;;;;;;386.08;235.10;;;;;;;;;;4991816;28;20030;-77
2021/04/08 07:59:26;;;;;;;395.05;239.43;;;;;;;;;;4975643;28;20136;-78
2021/04/08 08:02:03;;;;;;;391.85;234.82;;;;;;;;;;4974750;28;20489;-79
2021/04/08 08:04:30;;;;;;;390.98;239.45;;;;;;;;;;4973038;28;20038;-77
2021/04/08 08:06:57;;;;;;;398.88;246.00;;;;;;;;;;4974625;28;20034;-78
2021/04/08 08:09:27;;;;;;;393.45;247.40;;;;;;;;;;4975065;28;20154;-77
2021/04/08 08:11:54;;;;;;;391.17;238.75;;;;;;;;;;4974218;28;20026;-78
2021/04/08 08:14:31;;;;;;;391.48;240.93;;;;;;;;;;4989185;28;20030;-77
2021/04/08 08:17:10;;;;;;;390.80;237.73;;;;;;;;;;4973942;28;20026;-77
2021/04/08 08:19:37;;;;;;;393.67;244.25;;;;;;;;;;4965962;28;20066;-78
2021/04/08 08:22:04;;;;;;;402.88;251.02;;;;;;;;;;4990068;28;20030;-76
2021/04/08 08:24:30;;;;;;;417.58;260.90;;;;;;;;;;4973596;28;20041;-77
2021/04/08 08:26:56;;;;;;;427.40;272.08;;;;;;;;;;4981020;28;20062;-79
2021/04/08 08:29:30;;;;;;;588.10;349.13;;;;;;;;;;4990659;28;20018;-77
2021/04/08 08:32:04;;;;;;;430.15;278.48;;;;;;;;;;4989516;28;20022;-78
2021/04/08 08:34:32;;;;;;;542.95;334.27;;;;;;;;;;4992443;28;20371;-81
2021/04/08 08:37:02;;;;;;;580.60;355.52;;;;;;;;;;4970893;28;20033;-78
2021/04/08 08:39:30;;;;;;;593.88;379.90;;;;;;;;;;4969097;28;20027;-76
2021/04/08 08:41:57;;;;;;;422.80;299.95;;;;;;;;;;4980037;28;20038;-77
2021/04/08 08:44:23;;;;;;;424.52;304.02;;;;;;;;;;4967803;28;20100;-77
2021/04/08 08:46:53;;;;;;;420.50;305.27;;;;;;;;;;4970450;28;20039;-75
2021/04/08 08:49:20;;;;;;;420.42;298.13;;;;;;;;;;4986724;28;20018;-76
2021/04/08 08:51:48;;;;;;;411.55;285.40;;;;;;;;;;4990651;28;20050;-75
2021/04/08 08:54:15;;;;;;;411.65;285.27;;;;;;;;;;4973301;28;20032;-76
2021/04/08 08:56:41;;;;;;;408.05;283.67;;;;;;;;;;4990797;28;20109;-78
2021/04/08 08:59:07;;;;;;;409.70;285.10;;;;;;;;;;4971238;28;20121;-76
2021/04/08 09:01:35;;;;;;;407.95;282.35;;;;;;;;;;4969329;28;20042;-80
2021/04/08 09:04:02;;;;;;;403.60;274.60;;;;;;;;;;4973222;28;20463;-75
2021/04/08 09:06:28;;;;;;;405.90;274.85;;;;;;;;;;4973465;28;20040;-76
2021/04/08 09:08:58;;;;;;;401.92;269.15;;;;;;;;;;4975936;28;20034;-75
2021/04/08 09:11:27;;;;;;;396.83;258.93;;;;;;;;;;4994254;28;20050;-81
2021/04/08 09:13:59;;;;;;;401.52;261.25;;;;;;;;;;4992724;28;20022;-77
2021/04/08 09:16:25;;;;;;;394.23;255.15;;;;;;;;;;4977316;28;20034;-77
2021/04/08 09:18:57;;;;;;;399.52;261.60;;;;;;;;;;4977939;28;20042;-75
2021/04/08 09:21:24;;;;;;;401.70;266.98;;;;;;;;;;4976526;28;20037;-75
2021/04/08 09:24:10;;;;;;;398.80;262.83;;;;;;;;;;4994835;28;20081;-76
2021/04/08 09:26:38;;;;;;;408.38;274.17;;;;;;;;;;4976980;28;20113;-77
2021/04/08 09:29:04;;;;;;;406.80;279.23;;;;;;;;;;4991314;28;20029;-77
2021/04/08 09:31:31;;;;;;;409.83;279.25;;;;;;;;;;4994064;28;20053;-75
2021/04/08 09:33:58;;;;;;;405.58;277.27;;;;;;;;;;4974541;28;20046;-75
2021/04/08 09:36:24;;;;;;;401.92;272.42;;;;;;;;;;4994174;28;20034;-77
2021/04/08 09:38:56;;;;;;;402.35;272.95;;;;;;;;;;4975847;28;20444;-75
2021/04/08 09:41:41;;;;;;;402.33;271.45;;;;;;;;;;4993281;28;20034;-78
2021/04/08 09:44:07;;;;;;;408.77;272.45;;;;;;;;;;4972056;28;20109;-77
2021/04/08 09:46:41;;;;;;;404.02;273.75;;;;;;;;;;4976509;28;20041;-75
2021/04/08 09:49:07;;;;;;;398.20;267.30;;;;;;;;;;4979603;28;20048;-75
2021/04/08 09:51:35;;;;;;;405.15;270.05;;;;;;;;;;4977776;28;20029;-75
2021/04/08 09:54:02;;;;;;;399.25;261.48;;;;;;;;;;4989410;28;20023;-75
2021/04/08 09:56:40;;;;;;;404.33;265.05;;;;;;;;;;4978179;28;20474;-77
2021/04/08 09:59:07;;;;;;;402.73;261.23;;;;;;;;;;4990401;28;20057;-76
2021/04/08 10:01:33;;;;;;;404.25;265.45;;;;;;;;;;4973486;28;20449;-75
2021/04/08 10:04:09;;;;;;;402.10;265.63;;;;;;;;;;4975396;28;20032;-76
2021/04/08 10:06:35;;;;;;;404.85;268.00;;;;;;;;;;4968724;28;20031;-78
2021/04/08 10:09:12;;;;;;;406.55;275.90;;;;;;;;;;4974270;28;20058;-79
2021/04/08 10:11:40;;;;;;;400.08;268.58;;;;;;;;;;4960813;28;20022;-77
2021/04/08 10:14:35;;;;;;;398.35;264.25;;;;;;;;;;4970387;28;20038;-78
2021/04/08 10:17:04;;;;;;;408.55;271.13;;;;;;;;;;4966970;28;20379;-77
2021/04/08 10:19:31;;;;;;;399.98;259.77;;;;;;;;;;4968267;28;20045;-77
2021/04/08 10:21:58;;;;;;;401.23;263.80;;;;;;;;;;4974058;28;20468;-76
2021/04/08 10:24:25;;;;;;;403.77;257.02;;;;;;;;;;4976017;28;20026;-77
2021/04/08 10:26:51;;;;;;;401.95;257.75;;;;;;;;;;4974652;28;20542;-74
2021/04/08 10:29:30;;;;;;;401.65;267.35;;;;;;;;;;4966126;28;20023;-77
2021/04/08 10:31:56;;;;;;;403.27;266.30;;;;;;;;;;4974067;28;20057;-78
2021/04/08 10:34:22;;;;;;;397.35;259.52;;;;;;;;;;4968819;28;20436;-76
2021/04/08 10:36:57;;;;;;;398.67;255.23;;;;;;;;;;4955008;28;20042;-76
2021/04/08 10:39:25;;;;;;;397.83;257.80;;;;;;;;;;4963858;28;20027;-76
2021/04/08 10:41:57;;;;;;;393.48;252.13;;;;;;;;;;4970734;28;20088;-77
2021/04/08 10:44:23;;;;;;;392.10;251.63;;;;;;;;;;4965374;28;20039;-78
2021/04/08 10:46:50;;;;;;;400.33;265.05;;;;;;;;;;4950633;28;20849;-77
2021/04/08 10:49:26;;;;;;;399.83;258.55;;;;;;;;;;4955367;28;20026;-76
2021/04/08 10:51:53;;;;;;;399.10;259.48;;;;;;;;;;4952723;28;20499;-75
2021/04/08 10:54:19;;;;;;;399.92;258.70;;;;;;;;;;4971502;28;20050;-75
2021/04/08 10:56:49;;;;;;;400.00;255.95;;;;;;;;;;4967352;28;20070;-76
2021/04/08 10:59:16;;;;;;;406.15;262.45;;;;;;;;;;4948152;29;20035;-77
2021/04/08 11:01:42;;;;;;;404.45;271.33;;;;;;;;;;4944747;28;20484;-74
2021/04/08 11:04:08;;;;;;;409.08;276.05;;;;;;;;;;4967697;28;20109;-73
2021/04/08 11:06:34;;;;;;;408.52;266.02;;;;;;;;;;4973431;28;20050;-76
2021/04/08 11:09:00;;;;;;;403.48;269.95;;;;;;;;;;4973934;28;20042;-75
2021/04/08 11:11:26;;;;;;;408.55;269.45;;;;;;;;;;4989824;28;20022;-75
2021/04/08 11:13:52;;;;;;;414.55;271.80;;;;;;;;;;4971650;28;21486;-77
2021/04/08 11:16:18;;;;;;;407.08;270.35;;;;;;;;;;4990983;28;20030;-77
2021/04/08 11:18:45;;;;;;;406.85;274.08;;;;;;;;;;4975090;28;20685;-75
2021/04/08 11:21:11;;;;;;;408.00;271.13;;;;;;;;;;4992058;28;20085;-75
2021/04/08 11:23:38;;;;;;;413.30;280.17;;;;;;;;;;4981451;28;20034;-77
2021/04/08 11:26:05;;;;;;;407.95;278.90;;;;;;;;;;4973733;28;20054;-78
2021/04/08 11:28:31;;;;;;;409.88;278.70;;;;;;;;;;4975297;28;20026;-77
2021/04/08 11:30:58;;;;;;;408.50;279.60;;;;;;;;;;4973517;28;20022;-77
2021/04/08 11:33:25;;;;;;;409.02;276.75;;;;;;;;;;4973277;28;20078;-75
2021/04/08 11:35:52;;;;;;;409.67;270.20;;;;;;;;;;4987799;28;20502;-77
2021/04/08 11:38:19;;;;;;;404.75;271.55;;;;;;;;;;4989544;28;20839;-74
2021/04/08 11:40:46;;;;;;;407.98;276.20;;;;;;;;;;4971125;28;20470;-78
2021/04/08 11:43:23;;;;;;;402.98;265.48;;;;;;;;;;4987546;28;20024;-76
2021/04/08 11:45:49;;;;;;;410.80;271.52;;;;;;;;;;4972287;28;20564;-77
2021/04/08 11:48:15;;;;;;;406.75;268.25;;;;;;;;;;4973677;28;20061;-74
2021/04/08 11:50:42;;;;;;;410.67;267.40;;;;;;;;;;4986268;28;20023;-75
2021/04/08 11:53:16;;;;;;;401.88;262.35;;;;;;;;;;4956503;28;20045;-77
2021/04/08 11:55:42;;;;;;;403.45;267.40;;;;;;;;;;4968084;28;20050;-75
2021/04/08 11:58:09;;;;;;;405.25;268.08;;;;;;;;;;4970676;28;20046;-76
2021/04/08 12:00:35;;;;;;;407.00;274.45;;;;;;;;;;4972319;28;20129;-76
2021/04/08 12:03:12;;;;;;;409.13;270.45;;;;;;;;;;4970821;28;20086;-79
2021/04/08 12:05:38;;;;;;;406.80;272.73;;;;;;;;;;4973444;28;20394;-77
2021/04/08 12:08:04;;;;;;;407.08;268.50;;;;;;;;;;4972313;28;20034;-77
2021/04/08 12:10:32;;;;;;;406.23;270.45;;;;;;;;;;4967208;28;20030;-75
2021/04/08 12:12:59;;;;;;;436.75;292.00;;;;;;;;;;4966727;28;20030;-76
2021/04/08 12:15:41;;;;;;;562.15;330.50;;;;;;;;;;4973339;28;20022;-76
2021/04/08 12:18:10;;;;;;;420.52;284.15;;;;;;;;;;4986239;28;20053;-78
2021/04/08 12:20:39;;;;;;;413.90;284.37;;;;;;;;;;4973847;28;20129;-75
2021/04/08 12:23:09;;;;;;;415.38;289.90;;;;;;;;;;4968792;28;20348;-76
2021/04/08 12:25:43;;;;;;;409.45;273.65;;;;;;;;;;4972633;28;20161;-76
2021/04/08 12:28:09;;;;;;;410.90;278.08;;;;;;;;;;4975199;28;20402;-75
2021/04/08 12:30:45;;;;;;;407.30;271.42;;;;;;;;;;4966656;28;20133;-77
2021/04/08 12:33:11;;;;;;;405.83;270.08;;;;;;;;;;4971432;28;20094;-77
2021/04/08 12:35:37;;;;;;;403.67;268.20;;;;;;;;;;4972153;28;20079;-75
2021/04/08 12:38:03;;;;;;;407.88;270.48;;;;;;;;;;4993501;28;20044;-76
2021/04/08 12:40:29;;;;;;;402.92;269.20;;;;;;;;;;4970642;28;20125;-78
2021/04/08 12:42:56;;;;;;;401.73;270.05;;;;;;;;;;4982608;28;20030;-77
2021/04/08 12:45:22;;;;;;;403.63;267.00;;;;;;;;;;4974782;28;20121;-75
2021/04/08 12:47:48;;;;;;;400.90;269.00;;;;;;;;;;4977270;28;20042;-76
2021/04/08 12:50:14;;;;;;;403.50;273.20;;;;;;;;;;4995348;28;20022;-77
2021/04/08 12:52:40;;;;;;;404.85;276.98;;;;;;;;;;4974369;28;20049;-78
2021/04/08 12:55:06;;;;;;;405.75;278.63;;;;;;;;;;4975123;28;20018;-78
2021/04/08 12:57:32;;;;;;;407.70;275.08;;;;;;;;;;4977951;28;20034;-79
2021/04/08 12:59:58;;;;;;;407.15;280.48;;;;;;;;;;4993039;28;20035;-80
2021/04/08 13:02:24;;;;;;;404.92;278.25;;;;;;;;;;4993142;28;20034;-78
2021/04/08 13:04:50;;;;;;;401.58;274.63;;;;;;;;;;4987517;28;20037;-76
2021/04/08 13:07:16;;;;;;;404.33;273.35;;;;;;;;;;4975348;28;20030;-77
2021/04/08 13:09:44;;;;;;;406.48;278.08;;;;;;;;;;4966614;28;20526;-78
2021/04/08 13:12:10;;;;;;;411.38;280.45;;;;;;;;;;4997720;28;20032;-77
2021/04/08 13:14:36;;;;;;;407.50;278.02;;;;;;;;;;4971010;28;20738;-79
2021/04/08 13:17:03;;;;;;;400.63;269.42;;;;;;;;;;4969021;28;20023;-76
2021/04/08 13:19:29;;;;;;;404.05;274.90;;;;;;;;;;4992521;28;20109;-74
2021/04/08 13:21:55;;;;;;;410.05;281.60;;;;;;;;;;4976639;28;20086;-76
2021/04/08 13:24:21;;;;;;;407.55;280.50;;;;;;;;;;4970851;28;20567;-78
2021/04/08 13:26:46;;;;;;;407.58;277.40;;;;;;;;;;4982092;28;20030;-78
2021/04/08 13:29:12;;;;;;;408.60;272.83;;;;;;;;;;4989826;28;20073;-77
2021/04/08 13:31:38;;;;;;;408.75;273.70;;;;;;;;;;4977987;28;20066;-78
2021/04/08 13:34:04;;;;;;;409.48;274.38;;;;;;;;;;4975297;28;20098;-77
2021/04/08 13:36:30;;;;;;;405.10;275.10;;;;;;;;;;4969534;28;20129;-79
2021/04/08 13:38:56;;;;;;;406.50;273.65;;;;;;;;;;4980655;28;20049;-79
2021/04/08 13:41:22;;;;;;;408.45;279.42;;;;;;;;;;4987492;28;20030;-76
2021/04/08 13:43:48;;;;;;;407.10;277.23;;;;;;;;;;4971383;28;20030;-76
2021/04/08 13:46:14;;;;;;;411.02;281.27;;;;;;;;;;4966986;28;20034;-77
2021/04/08 13:48:40;;;;;;;413.00;281.98;;;;;;;;;;4976567;28;20022;-79
2021/04/08 13:51:06;;;;;;;411.05;289.83;;;;;;;;;;4971454;28;20085;-75
2021/04/08 13:53:32;;;;;;;410.27;278.25;;;;;;;;;;4965324;28;20035;-76
2021/04/08 13:56:01;;;;;;;413.08;280.30;;;;;;;;;;4970894;28;20698;-78